sensor_id;sensor_type;location;lat;lon;timestamp;pressure;altitude;pressure_sealevel;temperature;humidity
7026;BME280;3554;42.132;24.786;2023-12-20T00:00:57;99837.00;;;4.82;100.00
7026;BME280;3554;42.132;24.786;2023-12-20T00:03:23;99821.47;;;4.82;100.00
7026;BME280;3554;42.132;24.786;2023-12-20T00:05:50;99812.81;;;4.80;100.00
7026;BME280;3554;42.132;24.786;2023-12-20T00:08:19;99802.50;;;4.74;100.00
7026;BME280;3554;42.132;24.786;2023-12-20T00:10:46;99784.50;;;4.62;100.00
7026;BME280;3554;42.132;24.786;2023-12-20T00:13:13;99777.69;;;4.54;100.00
7026;BME280;3554;42.132;24.786;2023-12-20T00:15:40;99772.50;;;4.51;100.00
7026;BME280;3554;42.132;24.786;2023-12-20T00:18:07;99766.47;;;4.52;100.00
7026;BME280;3554;42.132;24.786;2023-12-20T00:20:34;99759.53;;;4.54;100.00
7026;BME280;3554;42.132;24.786;2023-12-20T00:23:01;99766.47;;;4.52;100.00
7026;BME280;3554;42.132;24.786;2023-12-20T00:25:30;99771.56;;;4.61;100.00
7026;BME280;3554;42.132;24.786;2023-12-20T00:27:56;99770.78;;;4.50;100.00
7026;BME280;3554;42.132;24.786;2023-12-20T00:30:23;99763.88;;;4.49;100.00
7026;BME280;3554;42.132;24.786;2023-12-20T00:32:50;99765.66;;;4.47;100.00
7026;BME280;3554;42.132;24.786;2023-12-20T00:35:18;99760.44;;;4.48;100.00
7026;BME280;3554;42.132;24.786;2023-12-20T00:37:45;99738.03;;;4.43;100.00
7026;BME280;3554;42.132;24.786;2023-12-20T00:40:12;99742.41;;;4.38;100.00
7026;BME280;3554;42.132;24.786;2023-12-20T00:42:41;99738.88;;;4.45;100.00
7026;BME280;3554;42.132;24.786;2023-12-20T00:45:08;99714.03;;;4.25;100.00
7026;BME280;3554;42.132;24.786;2023-12-20T00:47:35;99739.03;;;4.29;100.00
7026;BME280;3554;42.132;24.786;2023-12-20T00:50:03;99738.09;;;4.36;100.00
7026;BME280;3554;42.132;24.786;2023-12-20T00:52:30;99733.09;;;4.17;100.00
7026;BME280;3554;42.132;24.786;2023-12-20T00:54:57;99736.44;;;4.29;100.00
7026;BME280;3554;42.132;24.786;2023-12-20T00:57:24;99727.81;;;4.30;100.00
7026;BME280;3554;42.132;24.786;2023-12-20T00:59:52;99697.78;;;4.10;100.00
7026;BME280;3554;42.132;24.786;2023-12-20T01:02:19;99713.22;;;4.19;100.00
7026;BME280;3554;42.132;24.786;2023-12-20T01:04:46;99716.72;;;4.16;100.00
7026;BME280;3554;42.132;24.786;2023-12-20T01:07:13;99707.25;;;4.12;100.00
7026;BME280;3554;42.132;24.786;2023-12-20T01:09:40;99700.38;;;4.08;100.00
7026;BME280;3554;42.132;24.786;2023-12-20T01:12:07;99697.78;;;4.10;100.00
7026;BME280;3554;42.132;24.786;2023-12-20T01:14:34;99700.34;;;4.13;100.00
7026;BME280;3554;42.132;24.786;2023-12-20T01:17:03;99685.66;;;4.16;100.00
7026;BME280;3554;42.132;24.786;2023-12-20T01:19:30;99684.81;;;4.11;100.00
7026;BME280;3554;42.132;24.786;2023-12-20T01:21:57;99683.91;;;4.15;100.00
7026;BME280;3554;42.132;24.786;2023-12-20T01:24:24;99683.97;;;4.08;100.00
7026;BME280;3554;42.132;24.786;2023-12-20T01:26:51;99666.75;;;4.05;100.00
7026;BME280;3554;42.132;24.786;2023-12-20T01:29:18;99677.00;;;4.16;100.00
7026;BME280;3554;42.132;24.786;2023-12-20T01:31:44;99682.09;;;4.22;100.00
7026;BME280;3554;42.132;24.786;2023-12-20T01:34:13;99679.47;;;4.26;100.00
7026;BME280;3554;42.132;24.786;2023-12-20T01:36:40;99692.47;;;4.25;100.00
7026;BME280;3554;42.132;24.786;2023-12-20T01:39:07;99687.19;;;4.31;100.00
7026;BME280;3554;42.132;24.786;2023-12-20T01:41:34;99676.84;;;4.29;100.00
7026;BME280;3554;42.132;24.786;2023-12-20T01:44:00;99676.94;;;4.23;100.00
7026;BME280;3554;42.132;24.786;2023-12-20T01:46:27;99672.50;;;4.33;100.00
7026;BME280;3554;42.132;24.786;2023-12-20T01:48:54;99671.63;;;4.34;100.00
7026;BME280;3554;42.132;24.786;2023-12-20T01:51:25;99655.25;;;4.29;100.00
7026;BME280;3554;42.132;24.786;2023-12-20T01:53:54;99647.63;;;4.20;100.00
7026;BME280;3554;42.132;24.786;2023-12-20T01:56:22;99627.38;;;3.73;100.00
7026;BME280;3554;42.132;24.786;2023-12-20T01:58:49;99642.00;;;3.74;100.00
7026;BME280;3554;42.132;24.786;2023-12-20T02:01:16;99672.44;;;3.48;100.00
7026;BME280;3554;42.132;24.786;2023-12-20T02:03:44;99701.88;;;3.27;100.00
7026;BME280;3554;42.132;24.786;2023-12-20T02:06:11;99723.19;;;3.64;100.00
7026;BME280;3554;42.132;24.786;2023-12-20T02:08:40;99641.63;;;3.13;100.00
7026;BME280;3554;42.132;24.786;2023-12-20T02:11:07;99737.00;;;3.63;100.00
7026;BME280;3554;42.132;24.786;2023-12-20T02:13:34;99739.56;;;3.69;100.00
7026;BME280;3554;42.132;24.786;2023-12-20T02:16:02;99730.88;;;3.76;100.00
7026;BME280;3554;42.132;24.786;2023-12-20T02:18:29;99731.75;;;3.72;100.00
7026;BME280;3554;42.132;24.786;2023-12-20T02:20:56;99741.19;;;3.79;100.00
7026;BME280;3554;42.132;24.786;2023-12-20T02:23:24;99725.72;;;3.73;100.00
7026;BME280;3554;42.132;24.786;2023-12-20T02:25:51;99733.44;;;3.78;100.00
7026;BME280;3554;42.132;24.786;2023-12-20T02:28:18;99726.50;;;3.83;100.00
7026;BME280;3554;42.132;24.786;2023-12-20T02:30:47;99687.81;;;3.63;100.00
7026;BME280;3554;42.132;24.786;2023-12-20T02:33:15;99705.78;;;3.81;100.00
7026;BME280;3554;42.132;24.786;2023-12-20T02:35:42;99694.69;;;3.72;100.00
7026;BME280;3554;42.132;24.786;2023-12-20T02:38:09;99686.03;;;3.73;100.00
7026;BME280;3554;42.132;24.786;2023-12-20T02:40:37;99679.06;;;3.78;100.00
7026;BME280;3554;42.132;24.786;2023-12-20T02:43:04;99681.66;;;3.78;100.00
7026;BME280;3554;42.132;24.786;2023-12-20T02:45:31;99684.25;;;3.79;100.00
7026;BME280;3554;42.132;24.786;2023-12-20T02:47:58;99616.47;;;3.38;100.00
7026;BME280;3554;42.132;24.786;2023-12-20T02:50:25;99654.16;;;3.68;100.00
7026;BME280;3554;42.132;24.786;2023-12-20T02:52:52;99633.41;;;3.74;100.00
7026;BME280;3554;42.132;24.786;2023-12-20T02:55:19;99648.84;;;3.81;100.00
7026;BME280;3554;42.132;24.786;2023-12-20T02:57:47;99641.03;;;3.87;100.00
7026;BME280;3554;42.132;24.786;2023-12-20T03:00:15;99635.91;;;3.84;100.00
7026;BME280;3554;42.132;24.786;2023-12-20T03:02:42;99635.91;;;3.84;100.00
7026;BME280;3554;42.132;24.786;2023-12-20T03:05:09;99583.56;;;3.52;100.00
7026;BME280;3554;42.132;24.786;2023-12-20T03:07:36;99629.91;;;3.76;100.00
7026;BME280;3554;42.132;24.786;2023-12-20T03:10:05;99623.94;;;3.70;100.00
7026;BME280;3554;42.132;24.786;2023-12-20T03:12:33;99611.06;;;3.62;100.00
7026;BME280;3554;42.132;24.786;2023-12-20T03:15:01;99623.94;;;3.71;100.00
7026;BME280;3554;42.132;24.786;2023-12-20T03:17:28;99622.22;;;3.67;100.00
7026;BME280;3554;42.132;24.786;2023-12-20T03:19:55;99625.66;;;3.69;100.00
7026;BME280;3554;42.132;24.786;2023-12-20T03:22:22;99627.34;;;3.75;100.00
7026;BME280;3554;42.132;24.786;2023-12-20T03:24:49;99623.91;;;3.73;100.00
7026;BME280;3554;42.132;24.786;2023-12-20T03:27:16;99617.03;;;3.72;100.00
7026;BME280;3554;42.132;24.786;2023-12-20T03:29:43;99605.72;;;3.80;100.00
7026;BME280;3554;42.132;24.786;2023-12-20T03:32:12;99597.16;;;3.72;100.00
7026;BME280;3554;42.132;24.786;2023-12-20T03:34:39;99588.81;;;3.40;100.00
7026;BME280;3554;42.132;24.786;2023-12-20T03:37:05;99590.72;;;3.23;100.00
7026;BME280;3554;42.132;24.786;2023-12-20T03:39:32;99595.88;;;3.24;100.00
7026;BME280;3554;42.132;24.786;2023-12-20T03:41:59;99583.91;;;3.13;100.00
7026;BME280;3554;42.132;24.786;2023-12-20T03:44:26;99600.19;;;3.21;100.00
7026;BME280;3554;42.132;24.786;2023-12-20T03:46:53;99579.81;;;2.80;100.00
7026;BME280;3554;42.132;24.786;2023-12-20T03:49:22;99595.28;;;2.83;100.00
7026;BME280;3554;42.132;24.786;2023-12-20T03:51:48;99615.91;;;2.97;100.00
7026;BME280;3554;42.132;24.786;2023-12-20T03:54:15;99624.56;;;2.90;100.00
7026;BME280;3554;42.132;24.786;2023-12-20T03:56:42;99594.47;;;2.77;100.00
7026;BME280;3554;42.132;24.786;2023-12-20T03:59:09;99629.69;;;2.99;100.00
7026;BME280;3554;42.132;24.786;2023-12-20T04:01:36;99595.34;;;2.79;100.00
7026;BME280;3554;42.132;24.786;2023-12-20T04:04:03;99624.41;;;3.08;100.00
7026;BME280;3554;42.132;24.786;2023-12-20T04:06:32;99608.16;;;2.95;100.00
7026;BME280;3554;42.132;24.786;2023-12-20T04:08:58;99576.41;;;2.75;100.00
7026;BME280;3554;42.132;24.786;2023-12-20T04:11:26;99590.06;;;2.92;100.00
7026;BME280;3554;42.132;24.786;2023-12-20T04:13:53;99577.13;;;2.97;100.00
7026;BME280;3554;42.132;24.786;2023-12-20T04:16:20;99566.91;;;2.79;100.00
7026;BME280;3554;42.132;24.786;2023-12-20T04:18:47;99572.00;;;2.85;100.00
7026;BME280;3554;42.132;24.786;2023-12-20T04:21:14;99571.16;;;2.87;100.00
7026;BME280;3554;42.132;24.786;2023-12-20T04:23:42;99578.03;;;2.90;100.00
7026;BME280;3554;42.132;24.786;2023-12-20T04:26:09;99548.84;;;2.77;100.00
7026;BME280;3554;42.132;24.786;2023-12-20T04:28:36;99556.56;;;2.79;100.00
7026;BME280;3554;42.132;24.786;2023-12-20T04:31:03;99550.56;;;2.77;100.00
7026;BME280;3554;42.132;24.786;2023-12-20T04:33:30;99541.91;;;2.78;100.00
7026;BME280;3554;42.132;24.786;2023-12-20T04:35:57;99523.03;;;2.70;100.00
7026;BME280;3554;42.132;24.786;2023-12-20T04:38:25;99532.47;;;2.77;100.00
7026;BME280;3554;42.132;24.786;2023-12-20T04:40:53;99535.03;;;2.77;100.00
7026;BME280;3554;42.132;24.786;2023-12-20T04:43:21;99513.63;;;2.60;100.00
7026;BME280;3554;42.132;24.786;2023-12-20T04:45:48;99525.63;;;2.70;100.00
7026;BME280;3554;42.132;24.786;2023-12-20T04:48:15;99509.38;;;2.51;100.00
7026;BME280;3554;42.132;24.786;2023-12-20T04:50:42;99475.84;;;2.47;100.00
7026;BME280;3554;42.132;24.786;2023-12-20T04:53:09;99507.50;;;2.73;100.00
7026;BME280;3554;42.132;24.786;2023-12-20T04:55:35;99482.63;;;2.57;100.00
7026;BME280;3554;42.132;24.786;2023-12-20T04:58:04;99499.75;;;2.71;100.00
7026;BME280;3554;42.132;24.786;2023-12-20T05:00:31;99500.63;;;2.73;100.00
7026;BME280;3554;42.132;24.786;2023-12-20T05:02:58;99491.16;;;2.69;100.00
7026;BME280;3554;42.132;24.786;2023-12-20T05:05:25;99439.78;;;2.35;100.00
7026;BME280;3554;42.132;24.786;2023-12-20T05:07:52;99497.31;;;2.56;100.00
7026;BME280;3554;42.132;24.786;2023-12-20T05:10:19;99492.97;;;2.57;100.00
7026;BME280;3554;42.132;24.786;2023-12-20T05:12:46;99495.56;;;2.57;100.00
7026;BME280;3554;42.132;24.786;2023-12-20T05:15:14;99497.25;;;2.61;100.00
7026;BME280;3554;42.132;24.786;2023-12-20T05:17:41;99487.81;;;2.60;100.00
7026;BME280;3554;42.132;24.786;2023-12-20T05:20:08;99479.16;;;2.64;100.00
7026;BME280;3554;42.132;24.786;2023-12-20T05:22:36;99475.72;;;2.62;100.00
7026;BME280;3554;42.132;24.786;2023-12-20T05:25:03;99473.13;;;2.62;100.00
7026;BME280;3554;42.132;24.786;2023-12-20T05:27:30;99462.13;;;2.40;100.00
7026;BME280;3554;42.132;24.786;2023-12-20T05:29:57;99471.47;;;2.55;100.00
7026;BME280;3554;42.132;24.786;2023-12-20T05:32:27;99469.81;;;2.49;100.00
7026;BME280;3554;42.132;24.786;2023-12-20T05:34:53;99473.28;;;2.41;100.00
7026;BME280;3554;42.132;24.786;2023-12-20T05:37:20;99459.50;;;2.42;100.00
7026;BME280;3554;42.132;24.786;2023-12-20T05:39:47;99462.13;;;2.40;100.00
7026;BME280;3554;42.132;24.786;2023-12-20T05:42:15;99467.25;;;2.43;100.00
7026;BME280;3554;42.132;24.786;2023-12-20T05:44:42;99473.28;;;2.41;100.00
7026;BME280;3554;42.132;24.786;2023-12-20T05:47:08;99461.16;;;2.52;100.00
7026;BME280;3554;42.132;24.786;2023-12-20T05:49:37;99461.16;;;2.50;100.00
7026;BME280;3554;42.132;24.786;2023-12-20T05:52:04;99460.28;;;2.51;100.00
7026;BME280;3554;42.132;24.786;2023-12-20T05:54:31;99455.13;;;2.53;100.00
7026;BME280;3554;42.132;24.786;2023-12-20T05:56:58;99448.22;;;2.56;100.00
7026;BME280;3554;42.132;24.786;2023-12-20T05:59:26;99444.81;;;2.53;100.00
7026;BME280;3554;42.132;24.786;2023-12-20T06:01:53;99442.16;;;2.60;100.00
7026;BME280;3554;42.132;24.786;2023-12-20T06:04:20;99434.38;;;2.62;100.00
7026;BME280;3554;42.132;24.786;2023-12-20T06:06:48;99431.88;;;2.51;100.00
7026;BME280;3554;42.132;24.786;2023-12-20T06:09:15;99436.03;;;2.72;100.00
7026;BME280;3554;42.132;24.786;2023-12-20T06:11:42;99427.38;;;2.77;100.00
7026;BME280;3554;42.132;24.786;2023-12-20T06:14:09;99432.47;;;2.83;100.00
7026;BME280;3554;42.132;24.786;2023-12-20T06:16:36;99423.84;;;2.87;100.00
7026;BME280;3554;42.132;24.786;2023-12-20T06:19:03;99438.44;;;2.93;100.00
7026;BME280;3554;42.132;24.786;2023-12-20T06:21:30;99423.81;;;2.92;100.00
7026;BME280;3554;42.132;24.786;2023-12-20T06:23:59;99421.41;;;2.69;100.00
7026;BME280;3554;42.132;24.786;2023-12-20T06:26:26;99422.22;;;2.76;100.00
7026;BME280;3554;42.132;24.786;2023-12-20T06:28:53;99396.44;;;2.70;100.00
7026;BME280;3554;42.132;24.786;2023-12-20T06:31:20;99398.06;;;2.78;100.00
7026;BME280;3554;42.132;24.786;2023-12-20T06:33:47;99410.03;;;2.90;100.00
7026;BME280;3554;42.132;24.786;2023-12-20T06:36:22;99426.16;;;3.14;100.00
7026;BME280;3554;42.132;24.786;2023-12-20T06:38:49;99425.16;;;3.29;100.00
7026;BME280;3554;42.132;24.786;2023-12-20T06:41:18;99433.63;;;3.40;100.00
7026;BME280;3554;42.132;24.786;2023-12-20T06:43:45;99427.66;;;3.35;100.00
7026;BME280;3554;42.132;24.786;2023-12-20T06:46:12;99425.97;;;3.29;100.00
7026;BME280;3554;42.132;24.786;2023-12-20T06:48:39;99431.09;;;3.37;100.00
7026;BME280;3554;42.132;24.786;2023-12-20T06:51:06;99413.78;;;3.41;100.00
7026;BME280;3554;42.132;24.786;2023-12-20T06:53:33;99404.13;;;3.55;100.00
7026;BME280;3554;42.132;24.786;2023-12-20T06:56:00;99393.84;;;3.52;100.00
7026;BME280;3554;42.132;24.786;2023-12-20T06:58:29;99406.63;;;3.64;100.00
7026;BME280;3554;42.132;24.786;2023-12-20T07:00:56;99399.81;;;3.57;100.00
7026;BME280;3554;42.132;24.786;2023-12-20T07:03:23;99408.16;;;3.78;100.00
7026;BME280;3554;42.132;24.786;2023-12-20T07:05:50;99401.81;;;3.99;100.00
7026;BME280;3554;42.132;24.786;2023-12-20T07:08:17;99399.13;;;4.06;100.00
7026;BME280;3554;42.132;24.786;2023-12-20T07:10:44;99398.94;;;4.21;100.00
7026;BME280;3554;42.132;24.786;2023-12-20T07:13:11;99387.13;;;4.04;100.00
7026;BME280;3554;42.132;24.786;2023-12-20T07:15:41;99385.84;;;4.30;100.00
7026;BME280;3554;42.132;24.786;2023-12-20T07:18:08;99340.25;;;4.19;100.00
7026;BME280;3554;42.132;24.786;2023-12-20T07:20:35;99379.44;;;4.53;100.00
7026;BME280;3554;42.132;24.786;2023-12-20T07:23:02;99366.44;;;4.56;100.00
7026;BME280;3554;42.132;24.786;2023-12-20T07:25:28;99362.81;;;4.66;100.00
7026;BME280;3554;42.132;24.786;2023-12-20T07:27:58;99358.50;;;4.63;100.00
7026;BME280;3554;42.132;24.786;2023-12-20T07:30:25;99356.59;;;4.74;100.00
7026;BME280;3554;42.132;24.786;2023-12-20T07:32:53;99347.03;;;4.78;100.00
7026;BME280;3554;42.132;24.786;2023-12-20T07:35:20;99339.75;;;4.98;100.00
7026;BME280;3554;42.132;24.786;2023-12-20T07:37:47;99344.66;;;5.11;100.00
7026;BME280;3554;42.132;24.786;2023-12-20T07:40:14;99344.63;;;5.14;100.00
7026;BME280;3554;42.132;24.786;2023-12-20T07:42:42;99341.25;;;5.09;100.00
7026;BME280;3554;42.132;24.786;2023-12-20T07:45:09;99304.06;;;5.10;100.00
7026;BME280;3554;42.132;24.786;2023-12-20T07:47:37;99334.19;;;5.17;100.00
7026;BME280;3554;42.132;24.786;2023-12-20T07:50:06;99336.72;;;5.20;100.00
7026;BME280;3554;42.132;24.786;2023-12-20T07:52:33;99332.25;;;5.28;100.00
7026;BME280;3554;42.132;24.786;2023-12-20T07:55:00;99332.66;;;5.48;100.00
7026;BME280;3554;42.132;24.786;2023-12-20T07:57:28;99324.09;;;5.45;100.00
7026;BME280;3554;42.132;24.786;2023-12-20T07:59:56;99318.81;;;5.50;100.00
7026;BME280;3554;42.132;24.786;2023-12-20T08:02:23;99298.00;;;5.51;100.00
7026;BME280;3554;42.132;24.786;2023-12-20T08:04:50;99305.81;;;5.51;100.00
7026;BME280;3554;42.132;24.786;2023-12-20T08:07:18;99311.44;;;5.70;100.00
7026;BME280;3554;42.132;24.786;2023-12-20T08:09:45;99313.03;;;5.77;100.00
7026;BME280;3554;42.132;24.786;2023-12-20T08:12:12;99304.34;;;5.78;100.00
7026;BME280;3554;42.132;24.786;2023-12-20T08:14:39;99299.31;;;5.70;100.00
7026;BME280;3554;42.132;24.786;2023-12-20T08:17:06;99251.41;;;5.45;100.00
7026;BME280;3554;42.132;24.786;2023-12-20T08:19:33;99260.81;;;5.51;100.00
7026;BME280;3554;42.132;24.786;2023-12-20T08:22:00;99298.13;;;5.86;100.00
7026;BME280;3554;42.132;24.786;2023-12-20T08:24:29;99282.22;;;6.00;100.00
7026;BME280;3554;42.132;24.786;2023-12-20T08:26:56;99299.69;;;6.28;100.00
7026;BME280;3554;42.132;24.786;2023-12-20T08:29:23;99293.19;;;6.46;100.00
7026;BME280;3554;42.132;24.786;2023-12-20T08:31:52;99285.03;;;6.60;100.00
7026;BME280;3554;42.132;24.786;2023-12-20T08:34:20;99282.78;;;6.78;100.00
7026;BME280;3554;42.132;24.786;2023-12-20T08:36:47;99273.72;;;6.62;100.00
7026;BME280;3554;42.132;24.786;2023-12-20T08:39:14;99257.13;;;6.66;100.00
7026;BME280;3554;42.132;24.786;2023-12-20T08:41:42;99265.63;;;6.71;100.00
7026;BME280;3554;42.132;24.786;2023-12-20T08:44:09;99268.63;;;6.90;100.00
7026;BME280;3554;42.132;24.786;2023-12-20T08:46:36;99262.75;;;7.12;100.00
7026;BME280;3554;42.132;24.786;2023-12-20T08:49:03;99253.75;;;7.24;100.00
7026;BME280;3554;42.132;24.786;2023-12-20T08:51:30;99254.47;;;7.29;100.00
7026;BME280;3554;42.132;24.786;2023-12-20T08:53:57;99234.91;;;7.16;100.00
7026;BME280;3554;42.132;24.786;2023-12-20T08:56:24;99237.03;;;7.02;100.00
7026;BME280;3554;42.132;24.786;2023-12-20T08:58:52;99227.59;;;6.99;100.00
7026;BME280;3554;42.132;24.786;2023-12-20T09:01:19;99224.25;;;6.94;100.00
7026;BME280;3554;42.132;24.786;2023-12-20T09:03:46;99218.41;;;6.86;100.00
7026;BME280;3554;42.132;24.786;2023-12-20T09:06:13;99208.91;;;6.85;100.00
7026;BME280;3554;42.132;24.786;2023-12-20T09:08:41;99207.84;;;6.92;100.00
7026;BME280;3554;42.132;24.786;2023-12-20T09:11:07;99196.31;;;7.01;100.00
7026;BME280;3554;42.132;24.786;2023-12-20T09:13:34;99186.69;;;7.04;100.00
7026;BME280;3554;42.132;24.786;2023-12-20T09:16:03;99194.06;;;7.18;100.00
7026;BME280;3554;42.132;24.786;2023-12-20T09:18:30;99182.72;;;7.20;100.00
7026;BME280;3554;42.132;24.786;2023-12-20T09:20:57;99155.84;;;7.20;100.00
7026;BME280;3554;42.132;24.786;2023-12-20T09:23:24;99160.81;;;7.27;100.00
7026;BME280;3554;42.132;24.786;2023-12-20T09:25:51;99166.25;;;7.47;100.00
7026;BME280;3554;42.132;24.786;2023-12-20T09:28:18;99165.66;;;7.66;100.00
7026;BME280;3554;42.132;24.786;2023-12-20T09:30:45;99150.75;;;7.71;100.00
7026;BME280;3554;42.132;24.786;2023-12-20T09:33:14;99167.00;;;8.03;100.00
7026;BME280;3554;42.132;24.786;2023-12-20T09:35:41;99174.69;;;8.08;100.00
7026;BME280;3554;42.132;24.786;2023-12-20T09:38:09;99145.72;;;7.91;100.00
7026;BME280;3554;42.132;24.786;2023-12-20T09:40:36;99153.16;;;8.01;100.00
7026;BME280;3554;42.132;24.786;2023-12-20T09:43:11;99139.34;;;7.99;100.00
7026;BME280;3554;42.132;24.786;2023-12-20T09:45:40;99139.56;;;8.18;100.00
7026;BME280;3554;42.132;24.786;2023-12-20T09:48:10;99137.13;;;8.13;100.00
7026;BME280;3554;42.132;24.786;2023-12-20T09:50:39;99126.94;;;8.32;100.00
7026;BME280;3554;42.132;24.786;2023-12-20T09:53:08;99122.31;;;8.40;100.00
7026;BME280;3554;42.132;24.786;2023-12-20T09:55:36;99114.88;;;8.29;100.00
7026;BME280;3554;42.132;24.786;2023-12-20T09:58:04;99117.13;;;8.38;100.00
7026;BME280;3554;42.132;24.786;2023-12-20T10:00:33;99107.50;;;8.16;100.00
7026;BME280;3554;42.132;24.786;2023-12-20T10:03:00;99090.72;;;8.47;100.00
7026;BME280;3554;42.132;24.786;2023-12-20T10:05:28;99105.28;;;8.76;100.00
7026;BME280;3554;42.132;24.786;2023-12-20T10:07:58;99097.69;;;8.93;100.00
7026;BME280;3554;42.132;24.786;2023-12-20T10:10:26;99098.81;;;9.09;100.00
7026;BME280;3554;42.132;24.786;2023-12-20T10:13:03;99089.81;;;9.16;100.00
7026;BME280;3554;42.132;24.786;2023-12-20T10:15:31;99092.31;;;9.19;100.00
7026;BME280;3554;42.132;24.786;2023-12-20T10:17:58;99093.63;;;9.29;100.00
7026;BME280;3554;42.132;24.786;2023-12-20T10:20:25;99092.97;;;9.46;100.00
7026;BME280;3554;42.132;24.786;2023-12-20T10:22:54;99088.41;;;9.51;100.00
7026;BME280;3554;42.132;24.786;2023-12-20T10:25:23;99074.81;;;9.63;100.00
7026;BME280;3554;42.132;24.786;2023-12-20T10:28:08;99058.44;;;9.80;100.00
7026;BME280;3554;42.132;24.786;2023-12-20T10:30:35;99085.56;;;9.97;100.00
7026;BME280;3554;42.132;24.786;2023-12-20T10:33:02;99079.69;;;9.92;100.00
7026;BME280;3554;42.132;24.786;2023-12-20T10:35:29;99048.25;;;9.94;100.00
7026;BME280;3554;42.132;24.786;2023-12-20T10:37:56;99070.63;;;10.21;100.00
7026;BME280;3554;42.132;24.786;2023-12-20T10:40:26;99059.38;;;9.79;100.00
7026;BME280;3554;42.132;24.786;2023-12-20T10:42:56;99056.09;;;9.94;100.00
7026;BME280;3554;42.132;24.786;2023-12-20T10:45:25;99047.94;;;10.01;100.00
7026;BME280;3554;42.132;24.786;2023-12-20T10:47:52;99038.56;;;9.75;100.00
7026;BME280;3554;42.132;24.786;2023-12-20T10:50:19;98963.84;;;9.31;100.00
7026;BME280;3554;42.132;24.786;2023-12-20T10:52:47;98991.63;;;9.54;100.00
7026;BME280;3554;42.132;24.786;2023-12-20T10:55:14;99026.44;;;9.74;100.00
7026;BME280;3554;42.132;24.786;2023-12-20T10:57:44;99027.53;;;9.69;100.00
7026;BME280;3554;42.132;24.786;2023-12-20T11:00:17;99028.66;;;9.63;100.00
7026;BME280;3554;42.132;24.786;2023-12-20T11:02:45;99016.06;;;9.73;100.00
7026;BME280;3554;42.132;24.786;2023-12-20T11:05:22;99014.41;;;9.91;100.00
7026;BME280;3554;42.132;24.786;2023-12-20T11:07:54;98997.88;;;9.90;100.00
7026;BME280;3554;42.132;24.786;2023-12-20T11:10:26;98999.03;;;10.03;100.00
7026;BME280;3554;42.132;24.786;2023-12-20T11:13:01;98995.41;;;10.26;100.00
7026;BME280;3554;42.132;24.786;2023-12-20T11:15:35;99006.34;;;10.15;100.00
7026;BME280;3554;42.132;24.786;2023-12-20T11:18:04;98987.56;;;10.06;100.00
7026;BME280;3554;42.132;24.786;2023-12-20T11:20:36;98997.16;;;9.87;100.00
7026;BME280;3554;42.132;24.786;2023-12-20T11:23:04;98986.16;;;9.99;100.00
7026;BME280;3554;42.132;24.786;2023-12-20T11:25:46;98990.81;;;10.31;100.00
7026;BME280;3554;42.132;24.786;2023-12-20T11:28:15;98988.56;;;10.42;100.00
7026;BME280;3554;42.132;24.786;2023-12-20T11:30:47;98978.66;;;10.48;100.00
7026;BME280;3554;42.132;24.786;2023-12-20T11:33:15;98973.22;;;10.53;100.00
7026;BME280;3554;42.132;24.786;2023-12-20T11:35:42;98940.06;;;10.35;100.00
7026;BME280;3554;42.132;24.786;2023-12-20T11:38:09;98971.81;;;10.46;100.00
7026;BME280;3554;42.132;24.786;2023-12-20T11:40:37;98964.63;;;10.32;100.00
7026;BME280;3554;42.132;24.786;2023-12-20T11:43:04;98938.38;;;10.15;100.00
7026;BME280;3554;42.132;24.786;2023-12-20T11:45:33;98922.56;;;9.98;100.00
7026;BME280;3554;42.132;24.786;2023-12-20T11:48:01;98945.09;;;10.21;100.00
7026;BME280;3554;42.132;24.786;2023-12-20T11:50:29;98944.47;;;9.96;100.00
7026;BME280;3554;42.132;24.786;2023-12-20T11:52:57;98931.06;;;10.03;100.00
7026;BME280;3554;42.132;24.786;2023-12-20T11:55:24;98931.94;;;10.22;100.00
7026;BME280;3554;42.132;24.786;2023-12-20T11:57:51;98885.13;;;9.98;100.00
7026;BME280;3554;42.132;24.786;2023-12-20T12:00:19;98914.69;;;10.18;100.00
7026;BME280;3554;42.132;24.786;2023-12-20T12:02:57;98911.09;;;10.39;100.00
7026;BME280;3554;42.132;24.786;2023-12-20T12:05:25;98916.50;;;10.53;100.00
7026;BME280;3554;42.132;24.786;2023-12-20T12:07:53;98911.47;;;10.49;100.00
7026;BME280;3554;42.132;24.786;2023-12-20T12:10:20;98888.72;;;10.51;100.00
7026;BME280;3554;42.132;24.786;2023-12-20T12:12:47;98898.59;;;10.63;100.00
7026;BME280;3554;42.132;24.786;2023-12-20T12:15:14;98898.72;;;10.78;100.00
7026;BME280;3554;42.132;24.786;2023-12-20T12:17:41;98890.81;;;10.61;100.00
7026;BME280;3554;42.132;24.786;2023-12-20T12:20:10;98887.41;;;10.59;100.00
7026;BME280;3554;42.132;24.786;2023-12-20T12:22:38;98887.41;;;10.59;100.00
7026;BME280;3554;42.132;24.786;2023-12-20T12:25:11;98876.41;;;10.53;100.00
7026;BME280;3554;42.132;24.786;2023-12-20T12:27:40;98873.97;;;10.67;100.00
7026;BME280;3554;42.132;24.786;2023-12-20T12:30:08;98864.66;;;10.61;100.00
7026;BME280;3554;42.132;24.786;2023-12-20T12:32:36;98877.13;;;10.56;100.00
7026;BME280;3554;42.132;24.786;2023-12-20T12:35:04;98874.78;;;10.50;100.00
7026;BME280;3554;42.132;24.786;2023-12-20T12:37:34;98854.97;;;10.28;100.00
7026;BME280;3554;42.132;24.786;2023-12-20T12:40:01;98874.75;;;10.33;100.00
7026;BME280;3554;42.132;24.786;2023-12-20T12:42:28;98868.88;;;10.28;100.00
7026;BME280;3554;42.132;24.786;2023-12-20T12:44:55;98836.78;;;10.06;100.00
7026;BME280;3554;42.132;24.786;2023-12-20T12:47:22;98856.88;;;10.24;100.00
7026;BME280;3554;42.132;24.786;2023-12-20T12:49:51;98850.44;;;10.31;100.00
7026;BME280;3554;42.132;24.786;2023-12-20T12:52:18;98846.97;;;10.31;100.00
7026;BME280;3554;42.132;24.786;2023-12-20T12:54:46;98835.16;;;10.41;100.00
7026;BME280;3554;42.132;24.786;2023-12-20T12:57:14;98846.31;;;10.44;100.00
7026;BME280;3554;42.132;24.786;2023-12-20T12:59:41;98846.94;;;10.49;100.00
7026;BME280;3554;42.132;24.786;2023-12-20T13:02:09;98805.34;;;10.26;100.00
7026;BME280;3554;42.132;24.786;2023-12-20T13:04:36;98841.09;;;10.61;100.00
7026;BME280;3554;42.132;24.786;2023-12-20T13:07:03;98839.72;;;10.71;100.00
7026;BME280;3554;42.132;24.786;2023-12-20T13:09:31;98840.94;;;10.64;100.00
7026;BME280;3554;42.132;24.786;2023-12-20T13:11:59;98844.34;;;10.84;100.00